Have a Safe July 4th! 

Flight Track Log - Related Links

Times and Time Zones

All times are in EDT time to prevent confusion due to time zone crossing. See the SKQ301 flight status page for this flight to view local times or setup timezone preferences in your user account.

Time Position Orientation Groundspeed Altitude Reporting Facility
EDT Latitude Longitude Course Direction KTS MPH feet Rate Location/Type
Tue 04:05:43 AM 36.0667 -86.6833 180° South 97 112 2,500  Level Nashville TRACON
Tue 04:06:43 AM 36.0500 -86.6833 180° South 94 108 3,500 950 Climbing Nashville TRACON
Tue 04:07:43 AM 36.0167 -86.6833 180° South 107 123 4,400 942 Climbing Nashville TRACON
Tue 04:08:44 AM 35.9833 -86.6833 180° South 113 130 5,400 942 Climbing Nashville TRACON
Tue 04:09:44 AM 35.9500 -86.6833 180° South 116 133 6,300 1,000 Climbing Nashville TRACON
Tue 04:10:44 AM 35.9167 -86.6833 180° South 117 135 7,400 850 Climbing Nashville TRACON
Tue 04:11:00 AM 35.8171 -86.6833 180° South  Level FlightAware Approximate
Tue 04:11:44 AM 35.8833 -86.6833 180° South 119 137 8,000  Level Nashville TRACON
Tue 04:12:44 AM 35.8500 -86.6833 180° South 162 186 8,000 50 Level Nashville TRACON
Tue 04:13:44 AM 35.7981 -86.6944 190° South 179 206 8,100  Climbing Memphis Center
Tue 04:14:44 AM 35.7458 -86.6942 180° South 179 206 8,000 -50 Descending Memphis Center
Tue 04:15:44 AM 35.6978 -86.6964 182° South 179 206 8,000  Level Memphis Center
Tue 04:16:44 AM 35.6500 -86.6986 182° South 179 206 8,000  Level Memphis Center
Tue 04:17:44 AM 35.6042 -86.6981 179° South 179 206 8,000  Level Memphis Center
Tue 04:18:44 AM 35.5542 -86.7003 182° South 179 206 8,000  Level Memphis Center
Tue 04:19:44 AM 35.5061 -86.7022 182° South 179 206 8,000  Level Memphis Center
Tue 04:20:44 AM 35.4603 -86.7044 182° South 179 206 8,000  Level Memphis Center
Tue 04:21:44 AM 35.4103 -86.7039 179° South 179 206 8,000 50 Level Memphis Center
Tue 04:22:44 AM 35.3625 -86.7061 182° South 174 200 8,100 50 Climbing Memphis Center
Tue 04:23:44 AM 35.3144 -86.7083 182° South 179 206 8,100  Level Memphis Center
Tue 04:24:44 AM 35.2706 -86.7075 179° South 179 206 8,100  Level Memphis Center
Tue 04:25:44 AM 35.2228 -86.7072 180° South 179 206 8,100  Level Memphis Center
Tue 04:26:44 AM 35.1728 -86.7119 184° South 179 206 8,100 50 Level Memphis Center
Tue 04:27:44 AM 35.1269 -86.7139 182° South 174 200 8,200  Climbing Memphis Center
Tue 04:28:44 AM 35.0769 -86.7161 182° South 174 200 8,100 -50 Descending Memphis Center
Tue 04:29:44 AM 35.0289 -86.7156 179° South 179 206 8,100  Level Memphis Center
Tue 04:30:44 AM 34.9767 -86.7153 180° South 179 206 8,100  Level Memphis Center
Tue 04:31:44 AM 34.9308 -86.7172 182° South 179 206 8,100  Level Memphis Center
Tue 04:32:44 AM 34.8808 -86.7194 182° South 179 206 8,100  Level Memphis Center
Tue 04:33:44 AM 34.8331 -86.7189 179° South 179 206 8,100  Level Memphis Center
Tue 04:34:44 AM 34.7850 -86.7211 182° South 179 206 8,100  Level Memphis Center
Tue 04:35:44 AM 34.7350 -86.7231 182° South 179 206 8,100  Level Memphis Center
Tue 04:36:44 AM 34.6869 -86.7253 182° South 179 206 8,100  Level Memphis Center
Tue 04:37:44 AM 34.6411 -86.7247 179° South 179 206 8,100  Level Memphis Center
Tue 04:38:44 AM 34.5911 -86.7267 182° South 179 206 8,100  Level Memphis Center
Tue 04:39:44 AM 34.5433 -86.7289 182° South 179 206 8,100  Level Memphis Center
Tue 04:40:44 AM 34.4953 -86.7308 182° South 179 206 8,100  Level Memphis Center
Tue 04:41:44 AM 34.4453 -86.7306 180° South 179 206 8,100  Level Memphis Center
Tue 04:42:44 AM 34.3953 -86.7328 182° South 179 206 8,100  Level Memphis Center
Tue 04:44:38 AM 34.2947 -86.7367 182° South 178 205 8,100  Level Atlanta Center
Tue 04:45:39 AM 34.2469 -86.7353 179° South 177 204 8,100  Level Atlanta Center
Tue 04:46:39 AM 34.1967 -86.7411 185° South 176 203 8,100  Level Atlanta Center
Tue 04:47:40 AM 34.1486 -86.7397 179° South 175 201 8,100  Level Atlanta Center
Tue 04:48:40 AM 34.1006 -86.7406 181° South 174 200 8,100 -149 Level Atlanta Center
Tue 04:49:41 AM 34.0506 -86.7417 181° South 179 206 7,800 -295 Descending Atlanta Center
Tue 04:50:42 AM 33.9964 -86.7422 180° South 180 207 7,500 -378 Descending Atlanta Center
Tue 04:51:48 AM 33.9419 -86.7456 183° South 184 212 7,000 -520 Descending Atlanta Center
Tue 04:52:49 AM 33.8919 -86.7439 178° South 181 208 6,400 -541 Descending Atlanta Center
Tue 04:53:50 AM 33.8397 -86.7475 183° South 181 208 5,900 -595 Descending Atlanta Center
Tue 04:54:50 AM 33.7917 -86.7483 181° South 177 204 5,200 -793 Descending Atlanta Center
Tue 04:55:51 AM 33.7372 -86.7492 181° South 180 207 4,300 -893 Descending Atlanta Center
Tue 04:56:51 AM 33.6872 -86.7475 178° South 178 205 3,400 -942 Descending Atlanta Center
Tue 04:57:52 AM 33.6394 -86.7436 176° South 178 205 2,400 -836 Descending Atlanta Center
Tue 04:58:53 AM 33.5936 -86.7397 176° South 153 176 1,700 -689 Descending Atlanta Center
Tue 05:00:00 AM 33.5639 -86.7523 180° South  Level Estimated
Tue 05:07:00 AM 33.5639 -86.7523 180° South  Level Estimated

Login

Don't have an account? Register now (free) for customized features, flight alerts, and more!